sensor_id;sensor_type;location;lat;lon;timestamp;P1;durP1;ratioP1;P2;durP2;ratioP2
27424;SDS011;15244;49.088;11.886;2023-10-09T00:00:14;3.30;;;2.42;;
27424;SDS011;15244;49.088;11.886;2023-10-09T00:05:34;2.60;;;2.28;;
27424;SDS011;15244;49.088;11.886;2023-10-09T00:10:48;2.83;;;2.50;;
27424;SDS011;15244;49.088;11.886;2023-10-09T00:15:54;4.28;;;2.88;;
27424;SDS011;15244;49.088;11.886;2023-10-09T00:21:01;2.85;;;2.50;;
27424;SDS011;15244;49.088;11.886;2023-10-09T00:26:13;4.15;;;3.03;;
27424;SDS011;15244;49.088;11.886;2023-10-09T00:31:23;5.20;;;3.10;;
27424;SDS011;15244;49.088;11.886;2023-10-09T00:36:37;4.53;;;3.10;;
27424;SDS011;15244;49.088;11.886;2023-10-09T00:41:52;3.03;;;2.75;;
27424;SDS011;15244;49.088;11.886;2023-10-09T00:46:55;4.40;;;3.20;;
27424;SDS011;15244;49.088;11.886;2023-10-09T00:57:06;3.70;;;3.22;;
27424;SDS011;15244;49.088;11.886;2023-10-09T01:02:09;3.33;;;3.03;;
27424;SDS011;15244;49.088;11.886;2023-10-09T01:07:11;3.13;;;2.83;;
27424;SDS011;15244;49.088;11.886;2023-10-09T01:12:22;3.80;;;3.50;;
27424;SDS011;15244;49.088;11.886;2023-10-09T01:17:24;3.67;;;3.38;;
27424;SDS011;15244;49.088;11.886;2023-10-09T01:22:38;3.88;;;3.40;;
27424;SDS011;15244;49.088;11.886;2023-10-09T01:27:39;4.15;;;3.47;;
27424;SDS011;15244;49.088;11.886;2023-10-09T01:32:41;4.18;;;3.58;;
27424;SDS011;15244;49.088;11.886;2023-10-09T01:37:46;3.55;;;3.25;;
27424;SDS011;15244;49.088;11.886;2023-10-09T01:42:52;4.38;;;3.97;;
27424;SDS011;15244;49.088;11.886;2023-10-09T01:47:54;8.73;;;3.33;;
27424;SDS011;15244;49.088;11.886;2023-10-09T01:52:56;6.97;;;3.60;;
27424;SDS011;15244;49.088;11.886;2023-10-09T01:58:03;6.35;;;3.92;;
27424;SDS011;15244;49.088;11.886;2023-10-09T02:03:26;6.35;;;4.18;;
27424;SDS011;15244;49.088;11.886;2023-10-09T02:08:30;6.03;;;4.10;;
27424;SDS011;15244;49.088;11.886;2023-10-09T02:13:36;4.10;;;3.78;;
27424;SDS011;15244;49.088;11.886;2023-10-09T02:18:43;6.25;;;4.22;;
27424;SDS011;15244;49.088;11.886;2023-10-09T02:24:09;4.28;;;3.88;;
27424;SDS011;15244;49.088;11.886;2023-10-09T02:29:11;5.47;;;4.32;;
27424;SDS011;15244;49.088;11.886;2023-10-09T02:34:12;6.22;;;4.57;;
27424;SDS011;15244;49.088;11.886;2023-10-09T02:39:18;6.60;;;4.03;;
27424;SDS011;15244;49.088;11.886;2023-10-09T02:44:25;4.57;;;4.17;;
27424;SDS011;15244;49.088;11.886;2023-10-09T02:49:27;6.10;;;4.22;;
27424;SDS011;15244;49.088;11.886;2023-10-09T02:54:29;8.05;;;4.07;;
27424;SDS011;15244;49.088;11.886;2023-10-09T02:59:37;5.15;;;4.40;;
27424;SDS011;15244;49.088;11.886;2023-10-09T03:04:42;8.43;;;4.28;;
27424;SDS011;15244;49.088;11.886;2023-10-09T03:09:44;6.78;;;4.05;;
27424;SDS011;15244;49.088;11.886;2023-10-09T03:14:46;6.53;;;4.40;;
27424;SDS011;15244;49.088;11.886;2023-10-09T03:19:48;9.50;;;4.45;;
27424;SDS011;15244;49.088;11.886;2023-10-09T03:24:50;8.57;;;4.38;;
27424;SDS011;15244;49.088;11.886;2023-10-09T03:29:54;8.27;;;4.55;;
27424;SDS011;15244;49.088;11.886;2023-10-09T03:34:55;6.75;;;4.80;;
27424;SDS011;15244;49.088;11.886;2023-10-09T03:39:57;6.57;;;4.88;;
27424;SDS011;15244;49.088;11.886;2023-10-09T03:44:59;4.80;;;4.38;;
27424;SDS011;15244;49.088;11.886;2023-10-09T03:50:00;6.70;;;4.47;;
27424;SDS011;15244;49.088;11.886;2023-10-09T03:55:09;6.32;;;5.03;;
27424;SDS011;15244;49.088;11.886;2023-10-09T04:00:16;6.37;;;5.07;;
27424;SDS011;15244;49.088;11.886;2023-10-09T04:05:24;8.02;;;5.10;;
27424;SDS011;15244;49.088;11.886;2023-10-09T04:10:27;9.52;;;5.10;;
27424;SDS011;15244;49.088;11.886;2023-10-09T04:15:44;8.87;;;5.47;;
27424;SDS011;15244;49.088;11.886;2023-10-09T04:20:46;9.68;;;5.32;;
27424;SDS011;15244;49.088;11.886;2023-10-09T04:26:06;14.40;;;5.93;;
27424;SDS011;15244;49.088;11.886;2023-10-09T04:31:11;8.93;;;5.53;;
27424;SDS011;15244;49.088;11.886;2023-10-09T04:36:15;7.88;;;4.60;;
27424;SDS011;15244;49.088;11.886;2023-10-09T04:41:21;7.43;;;4.82;;
27424;SDS011;15244;49.088;11.886;2023-10-09T04:46:30;11.25;;;4.88;;
27424;SDS011;15244;49.088;11.886;2023-10-09T04:51:45;9.23;;;5.45;;
27424;SDS011;15244;49.088;11.886;2023-10-09T04:57:03;5.47;;;4.97;;
27424;SDS011;15244;49.088;11.886;2023-10-09T05:02:05;9.23;;;5.65;;
27424;SDS011;15244;49.088;11.886;2023-10-09T05:07:08;8.00;;;4.45;;
27424;SDS011;15244;49.088;11.886;2023-10-09T05:12:25;8.75;;;4.65;;
27424;SDS011;15244;49.088;11.886;2023-10-09T05:17:30;10.57;;;5.03;;
27424;SDS011;15244;49.088;11.886;2023-10-09T05:22:35;7.28;;;5.00;;
27424;SDS011;15244;49.088;11.886;2023-10-09T05:27:40;7.63;;;4.57;;
27424;SDS011;15244;49.088;11.886;2023-10-09T05:32:52;7.97;;;4.60;;
27424;SDS011;15244;49.088;11.886;2023-10-09T05:38:00;5.70;;;4.50;;
27424;SDS011;15244;49.088;11.886;2023-10-09T05:43:06;10.50;;;4.50;;
27424;SDS011;15244;49.088;11.886;2023-10-09T05:48:07;10.65;;;4.82;;
27424;SDS011;15244;49.088;11.886;2023-10-09T05:53:15;13.73;;;4.80;;
27424;SDS011;15244;49.088;11.886;2023-10-09T05:58:40;11.98;;;4.60;;
27424;SDS011;15244;49.088;11.886;2023-10-09T06:04:00;10.93;;;4.95;;
27424;SDS011;15244;49.088;11.886;2023-10-09T06:09:17;8.37;;;4.53;;
27424;SDS011;15244;49.088;11.886;2023-10-09T06:14:20;8.40;;;3.75;;
27424;SDS011;15244;49.088;11.886;2023-10-09T06:19:31;9.07;;;4.10;;
27424;SDS011;15244;49.088;11.886;2023-10-09T06:24:45;9.25;;;4.18;;
27424;SDS011;15244;49.088;11.886;2023-10-09T06:29:56;8.93;;;4.70;;
27424;SDS011;15244;49.088;11.886;2023-10-09T06:35:14;8.75;;;4.50;;
27424;SDS011;15244;49.088;11.886;2023-10-09T06:40:20;7.60;;;4.45;;
27424;SDS011;15244;49.088;11.886;2023-10-09T06:45:40;8.98;;;4.90;;
27424;SDS011;15244;49.088;11.886;2023-10-09T06:50:56;10.77;;;4.88;;
27424;SDS011;15244;49.088;11.886;2023-10-09T06:56:10;8.50;;;4.38;;
27424;SDS011;15244;49.088;11.886;2023-10-09T07:01:27;5.80;;;4.07;;
27424;SDS011;15244;49.088;11.886;2023-10-09T07:06:29;10.30;;;4.63;;
27424;SDS011;15244;49.088;11.886;2023-10-09T07:11:40;8.55;;;4.18;;
27424;SDS011;15244;49.088;11.886;2023-10-09T07:16:42;12.27;;;4.25;;
27424;SDS011;15244;49.088;11.886;2023-10-09T07:21:58;9.15;;;4.75;;
27424;SDS011;15244;49.088;11.886;2023-10-09T07:27:04;6.43;;;3.90;;
27424;SDS011;15244;49.088;11.886;2023-10-09T07:32:10;6.78;;;4.50;;
27424;SDS011;15244;49.088;11.886;2023-10-09T07:37:25;10.52;;;4.43;;
27424;SDS011;15244;49.088;11.886;2023-10-09T07:42:32;6.68;;;4.10;;
27424;SDS011;15244;49.088;11.886;2023-10-09T07:47:55;10.48;;;4.60;;
27424;SDS011;15244;49.088;11.886;2023-10-09T07:53:00;6.32;;;3.42;;
27424;SDS011;15244;49.088;11.886;2023-10-09T07:58:16;9.70;;;3.90;;
27424;SDS011;15244;49.088;11.886;2023-10-09T08:03:26;9.13;;;3.80;;
27424;SDS011;15244;49.088;11.886;2023-10-09T08:13:39;7.70;;;4.00;;
27424;SDS011;15244;49.088;11.886;2023-10-09T08:18:50;7.85;;;4.00;;
27424;SDS011;15244;49.088;11.886;2023-10-09T08:23:53;8.25;;;3.38;;
27424;SDS011;15244;49.088;11.886;2023-10-09T08:29:00;6.78;;;3.95;;
27424;SDS011;15244;49.088;11.886;2023-10-09T08:34:21;12.82;;;4.10;;
27424;SDS011;15244;49.088;11.886;2023-10-09T08:39:28;8.60;;;3.85;;
27424;SDS011;15244;49.088;11.886;2023-10-09T08:44:35;12.18;;;4.22;;
27424;SDS011;15244;49.088;11.886;2023-10-09T08:49:41;11.57;;;4.13;;
27424;SDS011;15244;49.088;11.886;2023-10-09T08:54:44;9.20;;;3.90;;
27424;SDS011;15244;49.088;11.886;2023-10-09T08:59:45;15.43;;;4.93;;
27424;SDS011;15244;49.088;11.886;2023-10-09T09:04:48;11.07;;;4.05;;
27424;SDS011;15244;49.088;11.886;2023-10-09T09:09:55;9.50;;;4.15;;
27424;SDS011;15244;49.088;11.886;2023-10-09T09:15:19;8.82;;;3.63;;
27424;SDS011;15244;49.088;11.886;2023-10-09T09:20:23;7.10;;;3.95;;
27424;SDS011;15244;49.088;11.886;2023-10-09T09:25:40;9.35;;;3.78;;
27424;SDS011;15244;49.088;11.886;2023-10-09T09:30:47;7.78;;;4.05;;
27424;SDS011;15244;49.088;11.886;2023-10-09T09:35:59;8.73;;;3.55;;
27424;SDS011;15244;49.088;11.886;2023-10-09T09:41:08;9.85;;;4.10;;
27424;SDS011;15244;49.088;11.886;2023-10-09T09:46:10;9.18;;;3.22;;
27424;SDS011;15244;49.088;11.886;2023-10-09T09:51:13;7.43;;;4.20;;
27424;SDS011;15244;49.088;11.886;2023-10-09T09:56:16;10.57;;;4.32;;
27424;SDS011;15244;49.088;11.886;2023-10-09T10:01:28;6.28;;;3.90;;
27424;SDS011;15244;49.088;11.886;2023-10-09T10:06:33;10.98;;;3.97;;
27424;SDS011;15244;49.088;11.886;2023-10-09T10:11:43;7.10;;;3.20;;
27424;SDS011;15244;49.088;11.886;2023-10-09T10:16:59;11.90;;;3.97;;
27424;SDS011;15244;49.088;11.886;2023-10-09T10:22:13;11.38;;;3.70;;
27424;SDS011;15244;49.088;11.886;2023-10-09T10:27:32;6.22;;;3.10;;
27424;SDS011;15244;49.088;11.886;2023-10-09T10:33:02;7.45;;;3.38;;
27424;SDS011;15244;49.088;11.886;2023-10-09T10:38:33;8.32;;;3.60;;
27424;SDS011;15244;49.088;11.886;2023-10-09T10:43:47;8.55;;;3.80;;
27424;SDS011;15244;49.088;11.886;2023-10-09T10:48:53;11.27;;;3.75;;
27424;SDS011;15244;49.088;11.886;2023-10-09T10:54:20;15.10;;;6.75;;
27424;SDS011;15244;49.088;11.886;2023-10-09T10:59:41;10.77;;;3.95;;
27424;SDS011;15244;49.088;11.886;2023-10-09T11:04:45;7.40;;;3.33;;
27424;SDS011;15244;49.088;11.886;2023-10-09T11:09:56;7.18;;;3.90;;
27424;SDS011;15244;49.088;11.886;2023-10-09T11:15:08;7.32;;;3.88;;
27424;SDS011;15244;49.088;11.886;2023-10-09T11:20:31;9.88;;;3.95;;
27424;SDS011;15244;49.088;11.886;2023-10-09T11:25:35;5.47;;;2.75;;
27424;SDS011;15244;49.088;11.886;2023-10-09T11:30:39;4.65;;;3.25;;
27424;SDS011;15244;49.088;11.886;2023-10-09T11:35:41;16.38;;;3.92;;
27424;SDS011;15244;49.088;11.886;2023-10-09T11:41:01;8.52;;;3.30;;
27424;SDS011;15244;49.088;11.886;2023-10-09T11:46:20;11.50;;;4.25;;
27424;SDS011;15244;49.088;11.886;2023-10-09T11:51:38;8.45;;;3.15;;
27424;SDS011;15244;49.088;11.886;2023-10-09T11:57:00;9.18;;;3.88;;
27424;SDS011;15244;49.088;11.886;2023-10-09T12:02:02;5.63;;;3.30;;
27424;SDS011;15244;49.088;11.886;2023-10-09T12:07:05;8.98;;;3.47;;
27424;SDS011;15244;49.088;11.886;2023-10-09T12:12:10;9.25;;;3.83;;
27424;SDS011;15244;49.088;11.886;2023-10-09T12:17:12;15.25;;;4.40;;
27424;SDS011;15244;49.088;11.886;2023-10-09T12:22:13;9.27;;;3.58;;
27424;SDS011;15244;49.088;11.886;2023-10-09T12:27:17;16.67;;;4.18;;
27424;SDS011;15244;49.088;11.886;2023-10-09T12:32:21;8.90;;;3.50;;
27424;SDS011;15244;49.088;11.886;2023-10-09T12:37:23;8.55;;;3.28;;
27424;SDS011;15244;49.088;11.886;2023-10-09T12:42:24;11.40;;;3.53;;
27424;SDS011;15244;49.088;11.886;2023-10-09T12:47:29;9.15;;;3.72;;
27424;SDS011;15244;49.088;11.886;2023-10-09T12:52:31;9.43;;;3.22;;
27424;SDS011;15244;49.088;11.886;2023-10-09T12:57:38;8.00;;;3.88;;
27424;SDS011;15244;49.088;11.886;2023-10-09T13:02:39;18.65;;;4.20;;
27424;SDS011;15244;49.088;11.886;2023-10-09T13:07:45;9.45;;;3.63;;
27424;SDS011;15244;49.088;11.886;2023-10-09T13:12:47;11.57;;;3.63;;
27424;SDS011;15244;49.088;11.886;2023-10-09T13:17:56;6.43;;;3.05;;
27424;SDS011;15244;49.088;11.886;2023-10-09T13:22:58;10.65;;;3.03;;
27424;SDS011;15244;49.088;11.886;2023-10-09T13:28:00;9.50;;;3.03;;
27424;SDS011;15244;49.088;11.886;2023-10-09T13:33:05;9.85;;;3.38;;
27424;SDS011;15244;49.088;11.886;2023-10-09T13:38:07;10.77;;;3.67;;
27424;SDS011;15244;49.088;11.886;2023-10-09T13:43:11;9.80;;;3.60;;
27424;SDS011;15244;49.088;11.886;2023-10-09T13:48:18;13.10;;;3.83;;
27424;SDS011;15244;49.088;11.886;2023-10-09T13:53:23;11.65;;;3.38;;
27424;SDS011;15244;49.088;11.886;2023-10-09T13:58:28;12.27;;;3.70;;
27424;SDS011;15244;49.088;11.886;2023-10-09T14:03:32;8.02;;;3.40;;
27424;SDS011;15244;49.088;11.886;2023-10-09T14:08:34;11.77;;;4.18;;
27424;SDS011;15244;49.088;11.886;2023-10-09T14:13:36;9.95;;;3.90;;
27424;SDS011;15244;49.088;11.886;2023-10-09T14:18:37;8.55;;;3.70;;
27424;SDS011;15244;49.088;11.886;2023-10-09T14:23:39;11.98;;;3.50;;
27424;SDS011;15244;49.088;11.886;2023-10-09T14:28:41;14.38;;;3.45;;
27424;SDS011;15244;49.088;11.886;2023-10-09T14:33:44;17.27;;;4.07;;
27424;SDS011;15244;49.088;11.886;2023-10-09T14:38:52;10.15;;;3.40;;
27424;SDS011;15244;49.088;11.886;2023-10-09T14:43:55;10.60;;;3.80;;
27424;SDS011;15244;49.088;11.886;2023-10-09T14:49:00;13.68;;;3.65;;
27424;SDS011;15244;49.088;11.886;2023-10-09T14:54:06;8.45;;;3.65;;
27424;SDS011;15244;49.088;11.886;2023-10-09T14:59:09;11.30;;;4.05;;
27424;SDS011;15244;49.088;11.886;2023-10-09T15:04:12;7.65;;;3.47;;
27424;SDS011;15244;49.088;11.886;2023-10-09T15:09:16;11.73;;;4.18;;
27424;SDS011;15244;49.088;11.886;2023-10-09T15:19:28;9.98;;;3.42;;
27424;SDS011;15244;49.088;11.886;2023-10-09T15:24:34;9.18;;;3.28;;
27424;SDS011;15244;49.088;11.886;2023-10-09T15:29:36;15.02;;;4.65;;
27424;SDS011;15244;49.088;11.886;2023-10-09T15:34:44;12.52;;;4.43;;
27424;SDS011;15244;49.088;11.886;2023-10-09T15:39:47;7.20;;;3.30;;
27424;SDS011;15244;49.088;11.886;2023-10-09T15:44:51;9.63;;;3.75;;
27424;SDS011;15244;49.088;11.886;2023-10-09T15:49:56;10.02;;;3.85;;
27424;SDS011;15244;49.088;11.886;2023-10-09T15:54:57;10.75;;;3.80;;
27424;SDS011;15244;49.088;11.886;2023-10-09T15:59:59;10.73;;;3.90;;
27424;SDS011;15244;49.088;11.886;2023-10-09T16:05:12;8.70;;;3.80;;
27424;SDS011;15244;49.088;11.886;2023-10-09T16:10:14;10.50;;;3.70;;
27424;SDS011;15244;49.088;11.886;2023-10-09T16:15:17;12.02;;;3.92;;
27424;SDS011;15244;49.088;11.886;2023-10-09T16:20:19;13.10;;;4.10;;
27424;SDS011;15244;49.088;11.886;2023-10-09T16:25:27;13.90;;;3.50;;
27424;SDS011;15244;49.088;11.886;2023-10-09T16:30:29;12.82;;;4.40;;
27424;SDS011;15244;49.088;11.886;2023-10-09T16:35:31;11.07;;;4.30;;
27424;SDS011;15244;49.088;11.886;2023-10-09T16:40:35;12.93;;;3.90;;
27424;SDS011;15244;49.088;11.886;2023-10-09T16:45:37;10.55;;;3.97;;
27424;SDS011;15244;49.088;11.886;2023-10-09T16:50:45;7.68;;;3.38;;
27424;SDS011;15244;49.088;11.886;2023-10-09T16:55:48;8.52;;;3.60;;
27424;SDS011;15244;49.088;11.886;2023-10-09T17:00:50;9.95;;;3.58;;
27424;SDS011;15244;49.088;11.886;2023-10-09T17:05:57;10.65;;;4.30;;
27424;SDS011;15244;49.088;11.886;2023-10-09T17:11:00;13.27;;;5.30;;
27424;SDS011;15244;49.088;11.886;2023-10-09T17:16:01;9.07;;;4.35;;
27424;SDS011;15244;49.088;11.886;2023-10-09T17:21:06;12.63;;;4.43;;
27424;SDS011;15244;49.088;11.886;2023-10-09T17:26:08;13.57;;;4.88;;
27424;SDS011;15244;49.088;11.886;2023-10-09T17:31:12;11.50;;;4.15;;
27424;SDS011;15244;49.088;11.886;2023-10-09T17:36:14;15.93;;;4.38;;
27424;SDS011;15244;49.088;11.886;2023-10-09T17:41:19;14.70;;;5.20;;
27424;SDS011;15244;49.088;11.886;2023-10-09T17:46:24;15.88;;;5.03;;
27424;SDS011;15244;49.088;11.886;2023-10-09T17:51:26;7.38;;;3.40;;
27424;SDS011;15244;49.088;11.886;2023-10-09T17:56:28;11.70;;;5.25;;
27424;SDS011;15244;49.088;11.886;2023-10-09T18:01:30;7.75;;;4.15;;
27424;SDS011;15244;49.088;11.886;2023-10-09T18:06:33;12.70;;;4.38;;
27424;SDS011;15244;49.088;11.886;2023-10-09T18:11:38;9.65;;;4.00;;
27424;SDS011;15244;49.088;11.886;2023-10-09T18:16:41;9.07;;;4.07;;
27424;SDS011;15244;49.088;11.886;2023-10-09T18:21:43;13.10;;;4.47;;
27424;SDS011;15244;49.088;11.886;2023-10-09T18:26:45;11.35;;;4.85;;
27424;SDS011;15244;49.088;11.886;2023-10-09T18:31:46;10.85;;;4.60;;
27424;SDS011;15244;49.088;11.886;2023-10-09T18:36:50;9.75;;;4.45;;
27424;SDS011;15244;49.088;11.886;2023-10-09T18:41:53;9.00;;;4.82;;
27424;SDS011;15244;49.088;11.886;2023-10-09T18:46:55;8.48;;;4.15;;
27424;SDS011;15244;49.088;11.886;2023-10-09T18:51:58;8.68;;;4.50;;
27424;SDS011;15244;49.088;11.886;2023-10-09T18:57:04;10.80;;;4.55;;
27424;SDS011;15244;49.088;11.886;2023-10-09T19:02:06;8.88;;;4.13;;
27424;SDS011;15244;49.088;11.886;2023-10-09T19:07:12;12.65;;;4.72;;
27424;SDS011;15244;49.088;11.886;2023-10-09T19:12:15;8.38;;;4.63;;
27424;SDS011;15244;49.088;11.886;2023-10-09T19:17:16;10.45;;;4.53;;
27424;SDS011;15244;49.088;11.886;2023-10-09T19:22:20;9.63;;;4.63;;
27424;SDS011;15244;49.088;11.886;2023-10-09T19:27:22;8.80;;;4.68;;
27424;SDS011;15244;49.088;11.886;2023-10-09T19:32:27;9.90;;;4.78;;
27424;SDS011;15244;49.088;11.886;2023-10-09T19:37:29;9.48;;;4.28;;
27424;SDS011;15244;49.088;11.886;2023-10-09T19:42:30;9.25;;;4.60;;
27424;SDS011;15244;49.088;11.886;2023-10-09T19:47:32;7.97;;;4.18;;
27424;SDS011;15244;49.088;11.886;2023-10-09T19:52:35;12.40;;;5.38;;
27424;SDS011;15244;49.088;11.886;2023-10-09T19:57:36;10.88;;;4.85;;
27424;SDS011;15244;49.088;11.886;2023-10-09T20:02:43;13.60;;;5.43;;
27424;SDS011;15244;49.088;11.886;2023-10-09T20:07:45;9.93;;;4.43;;
27424;SDS011;15244;49.088;11.886;2023-10-09T20:12:46;6.25;;;4.07;;
27424;SDS011;15244;49.088;11.886;2023-10-09T20:17:48;13.15;;;5.43;;
27424;SDS011;15244;49.088;11.886;2023-10-09T20:22:50;9.00;;;4.50;;
27424;SDS011;15244;49.088;11.886;2023-10-09T20:27:52;7.35;;;3.97;;
27424;SDS011;15244;49.088;11.886;2023-10-09T20:32:54;9.43;;;4.25;;
27424;SDS011;15244;49.088;11.886;2023-10-09T20:37:56;13.35;;;4.82;;
27424;SDS011;15244;49.088;11.886;2023-10-09T20:43:03;10.52;;;4.28;;
27424;SDS011;15244;49.088;11.886;2023-10-09T20:48:05;6.18;;;3.97;;
27424;SDS011;15244;49.088;11.886;2023-10-09T20:53:07;8.82;;;4.57;;
27424;SDS011;15244;49.088;11.886;2023-10-09T20:58:10;14.02;;;4.82;;
27424;SDS011;15244;49.088;11.886;2023-10-09T21:03:12;11.55;;;5.15;;
27424;SDS011;15244;49.088;11.886;2023-10-09T21:08:14;12.07;;;4.53;;
27424;SDS011;15244;49.088;11.886;2023-10-09T21:13:16;10.85;;;4.57;;
27424;SDS011;15244;49.088;11.886;2023-10-09T21:18:17;12.65;;;4.18;;
27424;SDS011;15244;49.088;11.886;2023-10-09T21:23:20;7.10;;;4.05;;
27424;SDS011;15244;49.088;11.886;2023-10-09T21:28:22;7.90;;;4.45;;
27424;SDS011;15244;49.088;11.886;2023-10-09T21:33:24;8.35;;;4.25;;
27424;SDS011;15244;49.088;11.886;2023-10-09T21:38:25;10.75;;;4.28;;
27424;SDS011;15244;49.088;11.886;2023-10-09T21:43:27;6.75;;;3.75;;
27424;SDS011;15244;49.088;11.886;2023-10-09T21:48:31;11.15;;;5.15;;
27424;SDS011;15244;49.088;11.886;2023-10-09T21:53:33;7.03;;;4.15;;
27424;SDS011;15244;49.088;11.886;2023-10-09T21:58:35;6.15;;;4.45;;
27424;SDS011;15244;49.088;11.886;2023-10-09T22:03:37;7.00;;;3.97;;
27424;SDS011;15244;49.088;11.886;2023-10-09T22:08:41;9.80;;;3.88;;
27424;SDS011;15244;49.088;11.886;2023-10-09T22:13:46;9.25;;;4.00;;
27424;SDS011;15244;49.088;11.886;2023-10-09T22:18:47;10.05;;;4.43;;
27424;SDS011;15244;49.088;11.886;2023-10-09T22:24:11;6.97;;;3.97;;
27424;SDS011;15244;49.088;11.886;2023-10-09T22:29:19;7.38;;;4.50;;
27424;SDS011;15244;49.088;11.886;2023-10-09T22:34:21;4.55;;;3.97;;
27424;SDS011;15244;49.088;11.886;2023-10-09T22:39:22;9.05;;;4.32;;
27424;SDS011;15244;49.088;11.886;2023-10-09T22:44:34;9.77;;;4.40;;
27424;SDS011;15244;49.088;11.886;2023-10-09T22:49:39;8.23;;;4.07;;
27424;SDS011;15244;49.088;11.886;2023-10-09T22:54:43;9.55;;;4.95;;
27424;SDS011;15244;49.088;11.886;2023-10-09T22:59:46;7.40;;;4.30;;
27424;SDS011;15244;49.088;11.886;2023-10-09T23:05:00;8.13;;;4.22;;
27424;SDS011;15244;49.088;11.886;2023-10-09T23:10:06;11.00;;;4.57;;
27424;SDS011;15244;49.088;11.886;2023-10-09T23:15:19;11.98;;;4.38;;
27424;SDS011;15244;49.088;11.886;2023-10-09T23:20:37;8.73;;;4.70;;
27424;SDS011;15244;49.088;11.886;2023-10-09T23:25:53;7.82;;;4.63;;
27424;SDS011;15244;49.088;11.886;2023-10-09T23:30:56;7.60;;;4.40;;
27424;SDS011;15244;49.088;11.886;2023-10-09T23:35:58;6.07;;;4.40;;
27424;SDS011;15244;49.088;11.886;2023-10-09T23:41:06;9.30;;;4.25;;
27424;SDS011;15244;49.088;11.886;2023-10-09T23:46:12;7.78;;;4.57;;
27424;SDS011;15244;49.088;11.886;2023-10-09T23:51:19;13.30;;;4.65;;
27424;SDS011;15244;49.088;11.886;2023-10-09T23:56:21;6.80;;;4.43;;
